Time,TemperatureF,DewpointF,PressureIn,WindDirection,WindDirectionDegrees,WindSpeedMPH,WindSpeedGustMPH,Humidity,HourlyPrecipIn,Conditions,Clouds,dailyrainin,SoftwareType,DateUTC
2013-01-22 00:02:00,34.0,25.6,30.11,North,356,1.0,4.0,71,0.00,CLR,FEW,0.00,WeatherDisplay:10.37,2013-01-22 08:02:00,
2013-01-22 00:17:00,34.1,26.0,30.11,NNW,327,2.0,5.0,72,0.00,CLR,FEW,0.00,WeatherDisplay:10.37,2013-01-22 08:17:00,
2013-01-22 00:32:00,34.0,25.6,30.11,NW,319,0.0,3.0,71,0.00,CLR,FEW,0.00,WeatherDisplay:10.37,2013-01-22 08:32:00,
2013-01-22 00:47:00,33.6,25.6,30.12,NNW,346,1.0,5.0,72,0.00,CLR,FEW,0.00,WeatherDisplay:10.37,2013-01-22 08:47:00,
2013-01-22 01:02:00,34.2,26.1,30.10,NNE,22,2.0,6.0,72,0.00,CLR,FEW,0.00,WeatherDisplay:10.37,2013-01-22 09:02:00,
2013-01-22 01:17:00,34.3,25.9,30.10,North,360,1.0,5.0,71,0.00,CLR,FEW,0.00,WeatherDisplay:10.37,2013-01-22 09:17:00,
2013-01-22 01:32:00,34.7,26.3,30.09,NNE,31,2.0,9.0,71,0.00,CLR,FEW,0.00,WeatherDisplay:10.37,2013-01-22 09:32:00,
2013-01-22 01:47:00,34.9,26.4,30.09,NNE,12,1.0,9.0,71,0.00,CLR,FEW,0.00,WeatherDisplay:10.37,2013-01-22 09:47:00,
2013-01-22 02:02:00,34.9,26.4,30.09,NE,40,2.0,8.0,71,0.00,CLR,FEW,0.00,WeatherDisplay:10.37,2013-01-22 10:02:00,
2013-01-22 02:17:00,34.9,26.4,30.09,NNE,23,2.0,8.0,71,0.00,CLR,FEW,0.00,WeatherDisplay:10.37,2013-01-22 10:17:00,
2013-01-22 02:32:00,34.9,26.1,30.10,NNE,26,1.0,8.0,70,0.00,CLR,FEW,0.00,WeatherDisplay:10.37,2013-01-22 10:32:00,
2013-01-22 02:47:00,34.3,25.9,30.09,NNE,13,0.0,6.0,71,0.00,CLR,FEW,0.00,WeatherDisplay:10.37,2013-01-22 10:47:00,
2013-01-22 03:02:00,34.3,25.9,30.08,NNE,13,3.0,9.0,71,0.00,CLR,FEW,0.00,WeatherDisplay:10.37,2013-01-22 11:02:00,
2013-01-22 03:17:00,34.9,26.4,30.08,NNE,19,3.0,7.0,71,0.00,CLR,FEW,0.00,WeatherDisplay:10.37,2013-01-22 11:17:00,
2013-01-22 03:32:00,34.9,26.1,30.07,NNE,32,3.0,6.0,70,0.00,CLR,FEW,0.00,WeatherDisplay:10.37,2013-01-22 11:32:00,
2013-01-22 03:47:00,35.2,26.4,30.07,NNE,21,3.0,8.0,70,0.00,CLR,FEW,0.00,WeatherDisplay:10.37,2013-01-22 11:47:00,
2013-01-22 04:02:00,35.1,26.0,30.07,North,11,2.0,6.0,69,0.00,CLR,FEW,0.00,WeatherDisplay:10.37,2013-01-22 12:02:00,
2013-01-22 04:17:00,35.0,25.8,30.07,NNE,15,1.0,5.0,69,0.00,CLR,FEW,0.00,WeatherDisplay:10.37,2013-01-22 12:17:00,
2013-01-22 04:32:00,35.4,26.3,30.05,NNE,26,2.0,8.0,69,0.00,CLR,FEW,0.00,WeatherDisplay:10.37,2013-01-22 12:32:00,
2013-01-22 04:47:00,35.4,26.3,30.06,NNW,341,0.0,7.0,69,0.00,CLR,FEW,0.00,WeatherDisplay:10.37,2013-01-22 12:47:00,
2013-01-22 05:02:00,34.9,25.7,30.05,NNE,14,1.0,12.0,69,0.00,CLR,FEW,0.00,WeatherDisplay:10.37,2013-01-22 13:02:00,
2013-01-22 05:17:00,34.9,25.7,30.05,NE,36,2.0,8.0,69,0.00,CLR,FEW,0.00,WeatherDisplay:10.37,2013-01-22 13:17:00,
2013-01-22 05:32:00,35.0,25.9,30.05,NNE,22,3.0,9.0,69,0.00,CLR,FEW,0.00,WeatherDisplay:10.37,2013-01-22 13:32:00,
2013-01-22 05:47:00,35.2,26.1,30.05,North,351,0.0,5.0,69,0.00,CLR,FEW,0.00,WeatherDisplay:10.37,2013-01-22 13:47:00,
2013-01-22 06:02:00,34.9,25.7,30.04,NNE,25,2.0,6.0,69,0.00,CLR,FEW,0.00,WeatherDisplay:10.37,2013-01-22 14:02:00,
2013-01-22 06:17:00,35.2,25.7,30.04,NNE,26,1.0,7.0,68,0.00,CLR,FEW,0.00,WeatherDisplay:10.37,2013-01-22 14:17:00,
2013-01-22 06:32:00,35.2,25.7,30.04,North,3,2.0,7.0,68,0.00,CLR,FEW,0.00,WeatherDisplay:10.37,2013-01-22 14:32:00,
2013-01-22 06:47:00,35.2,25.7,30.04,NE,35,3.0,8.0,68,0.00,CLR,FEW,0.00,WeatherDisplay:10.37,2013-01-22 14:47:00,
2013-01-22 07:02:00,35.4,25.5,30.04,NNE,32,5.0,9.0,67,0.00,CLR,FEW,0.00,WeatherDisplay:10.37,2013-01-22 15:02:00,
2013-01-22 07:17:00,35.4,25.5,30.02,NNE,30,5.0,11.0,67,0.00,CLR,FEW,0.00,WeatherDisplay:10.37,2013-01-22 15:17:00,
2013-01-22 07:32:00,35.4,25.2,30.02,NNE,32,6.0,10.0,66,0.00,CLR,FEW,0.00,WeatherDisplay:10.37,2013-01-22 15:32:00,
2013-01-22 07:47:00,35.7,25.4,30.02,NNE,30,3.0,8.0,66,0.00,CLR,FEW,0.00,WeatherDisplay:10.37,2013-01-22 15:47:00,
2013-01-22 08:02:00,35.2,25.0,30.02,NNE,17,5.0,7.0,66,0.00,CLR,FEW,0.00,WeatherDisplay:10.37,2013-01-22 16:02:00,
2013-01-22 08:17:00,35.2,25.0,30.02,NNE,26,2.0,9.0,66,0.00,CLR,FEW,0.00,WeatherDisplay:10.37,2013-01-22 16:17:00,
2013-01-22 08:32:00,35.4,25.2,30.02,NNE,20,6.0,9.0,66,0.00,CLR,FEW,0.00,WeatherDisplay:10.37,2013-01-22 16:32:00,
2013-01-22 08:47:00,36.1,25.5,30.02,NNE,25,1.0,9.0,65,0.00,CLR,FEW,0.00,WeatherDisplay:10.37,2013-01-22 16:47:00,
2013-01-22 09:17:00,37.9,26.8,30.02,North,3,1.0,5.0,64,0.00,CLR,FEW,0.00,WeatherDisplay:10.37,2013-01-22 17:17:00,
2013-01-22 09:32:00,38.8,27.3,30.01,NNE,28,1.0,8.0,63,0.00,CLR,FEW,0.00,WeatherDisplay:10.37,2013-01-22 17:32:00,
2013-01-22 10:02:00,40.3,28.3,30.02,North,5,1.0,4.0,62,0.00,CLR,FEW,0.00,WeatherDisplay:10.37,2013-01-22 18:02:00,
2013-01-22 10:17:00,41.2,28.7,30.02,NNE,23,0.0,7.0,61,0.00,CLR,FEW,0.00,WeatherDisplay:10.37,2013-01-22 18:17:00,
2013-01-22 10:32:00,42.1,28.8,30.02,North,5,1.0,5.0,59,0.00,CLR,FEW,0.00,WeatherDisplay:10.37,2013-01-22 18:32:00,
2013-01-22 10:47:00,42.6,28.9,30.03,NNE,28,1.0,5.0,58,0.00,CLR,FEW,0.00,WeatherDisplay:10.37,2013-01-22 18:47:00,
2013-01-22 11:02:00,43.3,29.5,30.02,North,2,1.0,4.0,58,0.00,CLR,FEW,0.00,WeatherDisplay:10.37,2013-01-22 19:02:00,
2013-01-22 11:17:00,43.4,28.8,30.02,NE,36,2.0,8.0,56,0.00,CLR,FEW,0.00,WeatherDisplay:10.37,2013-01-22 19:17:00,
2013-01-22 11:32:00,43.7,28.6,30.01,NNE,13,1.0,10.0,55,0.00,CLR,FEW,0.00,WeatherDisplay:10.37,2013-01-22 19:32:00,
2013-01-22 11:47:00,44.6,29.4,30.00,ENE,69,2.0,8.0,55,0.00,CLR,FEW,0.00,WeatherDisplay:10.37,2013-01-22 19:47:00,
2013-01-22 12:02:00,45.1,29.5,29.99,NNE,32,2.0,12.0,54,0.00,CLR,FEW,0.00,WeatherDisplay:10.37,2013-01-22 20:02:00,
2013-01-22 12:32:00,48.3,31.0,29.99,NNE,14,3.0,7.0,51,0.00,CLR,FEW,0.00,WeatherDisplay:10.37,2013-01-22 20:32:00,
2013-01-22 12:47:00,50.2,31.2,29.98,NE,52,3.0,10.0,48,0.00,CLR,FEW,0.00,WeatherDisplay:10.37,2013-01-22 20:47:00,
2013-01-22 13:02:00,50.3,31.3,29.97,North,7,0.0,6.0,48,0.00,CLR,FEW,0.00,WeatherDisplay:10.37,2013-01-22 21:02:00,
2013-01-22 13:17:00,50.4,30.9,29.96,NE,34,2.0,7.0,47,0.00,CLR,FEW,0.00,WeatherDisplay:10.37,2013-01-22 21:17:00,
2013-01-22 13:32:00,50.5,31.0,29.96,NNE,22,1.0,6.0,47,0.00,CLR,FEW,0.00,WeatherDisplay:10.37,2013-01-22 21:32:00,
2013-01-22 13:47:00,50.5,31.0,29.96,North,1,2.0,6.0,47,0.00,CLR,FEW,0.00,WeatherDisplay:10.37,2013-01-22 21:47:00,
2013-01-22 14:02:00,50.5,30.5,29.96,NNE,32,1.0,8.0,46,0.00,CLR,FEW,0.00,WeatherDisplay:10.37,2013-01-22 22:02:00,
2013-01-22 14:17:00,50.8,31.3,29.94,North,7,1.0,7.0,47,0.00,CLR,FEW,0.00,WeatherDisplay:10.37,2013-01-22 22:17:00,
2013-01-22 14:32:00,50.4,30.4,29.95,North,351,1.0,7.0,46,0.00,CLR,FEW,0.00,WeatherDisplay:10.37,2013-01-22 22:32:00,
2013-01-22 14:47:00,49.6,30.2,29.94,NNE,12,2.0,5.0,47,0.00,CLR,FEW,0.00,WeatherDisplay:10.37,2013-01-22 22:47:00,
2013-01-22 15:02:00,48.9,30.1,29.94,NE,44,2.0,5.0,48,0.00,CLR,FEW,0.00,WeatherDisplay:10.37,2013-01-22 23:02:00,
2013-01-22 15:17:00,48.7,29.8,29.93,North,4,1.0,7.0,48,0.00,CLR,FEW,0.00,WeatherDisplay:10.37,2013-01-22 23:17:00,
2013-01-22 15:32:00,48.2,28.9,29.94,North,8,2.0,12.0,47,0.00,CLR,FEW,0.00,WeatherDisplay:10.37,2013-01-22 23:32:00,
2013-01-22 15:47:00,48.3,29.0,29.92,NNE,33,1.0,7.0,47,0.00,CLR,FEW,0.00,WeatherDisplay:10.37,2013-01-22 23:47:00,
2013-01-22 16:02:00,48.1,29.3,29.92,North,7,1.0,8.0,48,0.00,CLR,FEW,0.00,WeatherDisplay:10.37,2013-01-23 00:02:00,
2013-01-22 16:17:00,47.8,29.5,29.92,NNW,335,1.0,3.0,49,0.00,CLR,FEW,0.00,WeatherDisplay:10.37,2013-01-23 00:17:00,
2013-01-22 16:32:00,46.9,29.2,29.91,NNW,341,0.0,3.0,50,0.00,CLR,FEW,0.00,WeatherDisplay:10.37,2013-01-23 00:32:00,
2013-01-22 16:47:00,46.0,28.9,29.91,NW,320,1.0,2.0,51,0.00,CLR,FEW,0.00,WeatherDisplay:10.37,2013-01-23 00:47:00,
2013-01-22 17:02:00,45.0,28.8,29.91,NNW,336,0.0,3.0,53,0.00,CLR,FEW,0.00,WeatherDisplay:10.37,2013-01-23 01:02:00,
2013-01-22 17:17:00,44.2,28.2,29.91,NNE,28,1.0,5.0,53,0.00,CLR,FEW,0.00,WeatherDisplay:10.37,2013-01-23 01:17:00,
2013-01-22 17:32:00,43.5,28.0,29.91,NNW,339,2.0,5.0,54,0.00,CLR,FEW,0.00,WeatherDisplay:10.37,2013-01-23 01:32:00,
2013-01-22 17:47:00,43.0,27.9,29.91,NNW,344,2.0,5.0,55,0.00,CLR,FEW,0.00,WeatherDisplay:10.37,2013-01-23 01:47:00,
2013-01-22 18:02:00,42.6,28.0,29.91,NW,311,2.0,6.0,56,0.00,CLR,FEW,0.00,WeatherDisplay:10.37,2013-01-23 02:02:00,
2013-01-22 18:17:00,42.4,28.3,29.91,NNW,345,1.0,5.0,57,0.00,CLR,FEW,0.00,WeatherDisplay:10.37,2013-01-23 02:17:00,
2013-01-22 18:32:00,42.6,28.4,29.91,North,3,1.0,6.0,57,0.00,CLR,FEW,0.00,WeatherDisplay:10.37,2013-01-23 02:32:00,
2013-01-22 18:47:00,42.6,28.4,29.91,North,356,3.0,9.0,57,0.00,CLR,FEW,0.00,WeatherDisplay:10.37,2013-01-23 02:47:00,
2013-01-22 19:02:00,43.3,29.1,29.91,WNW,294,5.0,7.0,57,0.00,OVC,FEW,0.00,WeatherDisplay:10.37,2013-01-23 03:02:00,
2013-01-22 19:17:00,42.7,29.0,29.92,SW,216,0.0,9.0,58,0.00,OVC,FEW,0.00,WeatherDisplay:10.37,2013-01-23 03:17:00,
2013-01-22 19:32:00,42.6,29.3,29.92,West,270,0.0,4.0,59,0.00,OVC,FEW,0.00,WeatherDisplay:10.37,2013-01-23 03:32:00,
2013-01-22 19:47:00,42.1,29.6,29.92,NE,41,0.0,4.0,61,0.00,OVC,FEW,0.00,WeatherDisplay:10.37,2013-01-23 03:47:00,
2013-01-22 20:02:00,41.5,29.1,29.91,NW,309,0.0,2.0,61,0.00,OVC,FEW,0.00,WeatherDisplay:10.37,2013-01-23 04:02:00,
2013-01-22 20:17:00,41.5,29.1,29.91,NNE,18,1.0,5.0,61,0.00,OVC,FEW,0.00,WeatherDisplay:10.37,2013-01-23 04:17:00,
2013-01-22 20:32:00,42.1,29.2,29.90,North,8,0.0,5.0,60,0.00,OVC,FEW,0.00,WeatherDisplay:10.37,2013-01-23 04:32:00,
2013-01-22 20:47:00,42.6,29.3,29.91,NW,304,0.0,4.0,59,0.00,OVC,FEW,0.00,WeatherDisplay:10.37,2013-01-23 04:47:00,
2013-01-22 21:17:00,42.1,29.2,29.91,NNW,338,0.0,2.0,60,0.00,OVC,FEW,0.00,WeatherDisplay:10.37,2013-01-23 05:17:00,
2013-01-22 21:32:00,41.9,29.4,29.91,NNW,327,0.0,2.0,61,0.00,OVC,FEW,0.00,WeatherDisplay:10.37,2013-01-23 05:32:00,
2013-01-22 21:47:00,41.9,29.4,29.92,SW,230,0.0,2.0,61,0.00,OVC,FEW,0.00,WeatherDisplay:10.37,2013-01-23 05:47:00,
2013-01-22 22:02:00,41.8,29.3,29.92,West,267,0.0,2.0,61,0.00,OVC,FEW,0.00,WeatherDisplay:10.37,2013-01-23 06:02:00,
2013-01-22 22:17:00,41.5,29.5,29.93,SE,131,0.0,0.0,62,0.00,OVC,FEW,0.00,WeatherDisplay:10.37,2013-01-23 06:17:00,
2013-01-22 22:32:00,41.2,29.1,29.93,North,5,0.0,2.0,62,0.00,OVC,FEW,0.00,WeatherDisplay:10.37,2013-01-23 06:32:00,
2013-01-22 22:47:00,40.8,29.2,29.93,SE,135,0.0,0.0,63,0.00,OVC,FEW,0.00,WeatherDisplay:10.37,2013-01-23 06:47:00,
2013-01-22 23:02:00,40.6,29.4,29.93,North,10,0.0,0.0,64,0.00,OVC,FEW,0.00,WeatherDisplay:10.37,2013-01-23 07:02:00,
2013-01-22 23:17:00,40.3,29.1,29.94,West,269,0.0,0.0,64,0.00,OVC,FEW,0.00,WeatherDisplay:10.37,2013-01-23 07:17:00,
2013-01-22 23:32:00,39.9,29.1,29.94,NE,36,0.0,0.0,65,0.00,OVC,FEW,0.00,WeatherDisplay:10.37,2013-01-23 07:32:00,
2013-01-22 23:47:00,39.7,28.9,29.94,ESE,106,0.0,0.0,65,0.00,OVC,FEW,0.00,WeatherDisplay:10.37,2013-01-23 07:47:00,